Regional Weather

 

KMKL - Jackson, TN, USA
Distance from station: WNW 50mi, 81km
Updated: Fri, Jul-20-2018 12:53pm CDT
Few Clouds
Few Clouds
 Wind from varies
Wind: varies 5 mph , 7 km/h
Temperature: 90°F , 32°C
Heat Index: 109°F , 43°C
Dew Point: 81°F , 27°C
Humidity: 75%
Barometer: 29.90 inHg , 1012.5 hPa
Clouds: Few Clouds
Visibility: 10 miles , 16 km
Cloud details: Few Clouds 2200 ft
2018/07/20 17:53 KMKL 201753Z VRB04KT 10SM FEW022 32/27 A2990 RMK AO2 SLP120 T03220272 10322 20250 58007
KMEM - Memphis, TN, USA
Distance from station: W 108mi, 173km
Updated: Fri, Jul-20-2018 12:54pm CDT
Partly cloudy
Partly cloudy
 Wind from E
Wind: E 3 mph , 6 km/h
Temperature: 88°F , 31°C
Heat Index: 103°F , 39°C
Dew Point: 79°F , 26°C
Humidity: 75%
Barometer: 29.88 inHg , 1011.9 hPa
Clouds: Partly cloudy
Visibility: 10 miles , 16 km
Cloud details: Few Clouds 4000 ft
Partly cloudy 15000 ft
Partly cloudy 25000 ft
2018/07/20 17:54 KMEM 201754Z 09003KT 10SM FEW040 SCT150 SCT250 31/26 A2988 RMK AO2 SLP113 60001 T03110261 10311 20250 58010
 
KBNA - Nashville, TN, USA
Distance from station: NE 97mi, 157km
Updated: Fri, Jul-20-2018 12:53pm CDT
Mostly cloudy
Mostly cloudy
 Wind from S
Wind: S 13 mph , 20 km/h, Gust: 21 mph , 33 km/h
Temperature: 91°F , 33°C
Heat Index: 98°F , 37°C
Dew Point: 72°F , 22°C
Humidity: 52%
Barometer: 29.93 inHg , 1013.5 hPa
Clouds: Mostly cloudy
Visibility: 10 miles , 16 km
Cloud details: Few Clouds 3600 ft
Partly cloudy 5000 ft
Mostly cloudy 25000 ft
2018/07/20 17:53 KBNA 201753Z 17011G18KT 140V200 10SM FEW036 SCT050 BKN250 33/22 A2993 RMK AO2 SLP127 T03330222 10333 20244 58013
KCKV - Clarksville, TN, USA
Distance from station: NNE 99mi, 159km
Updated: Fri, Jul-20-2018 12:52pm CDT
Partly cloudy
Partly cloudy
 Wind from SSW
Wind: SSW 10 mph , 17 km/h
Temperature: 88°F , 31°C
Heat Index: 98°F , 37°C
Dew Point: 75°F , 24°C
Humidity: 66%
Barometer: 29.90 inHg , 1012.5 hPa
Clouds: Partly cloudy
Visibility: 10 miles , 16 km
Cloud details: Few Clouds 2600 ft
Partly cloudy 3200 ft
2018/07/20 17:52 KCKV 201752Z AUTO 20009KT 10SM FEW026 SCT032 31/24 A2990 RMK AO2 SLP118 T03110239 10311 20244 58010
 
KPAH - Paducah, KY, USA
Distance from station: NNW 128mi, 205km
Updated: Fri, Jul-20-2018 12:53pm CDT
Clear
Clear
 Wind from SW
Wind: SW 9 mph , 15 km/h
Temperature: 91°F , 33°C
Heat Index: 102°F , 39°C
Dew Point: 75°F , 24°C
Humidity: 59%
Barometer: 29.86 inHg , 1011.2 hPa
Clouds: Clear
Visibility: 10 miles , 16 km
2018/07/20 17:53 KPAH 201753Z 23008KT 10SM CLR 33/24 A2986 RMK AO2 SLP107 T03280239 10328 20244 58004
KCHA - Chattanooga, TN, USA
Distance from station: E 165mi, 265km
Updated: Fri, Jul-20-2018 12:53pm CDT
Mostly cloudy
Mostly cloudy
 Wind from S
Wind: S 10 mph , 17 km/h
Temperature: 86°F , 30°C
Heat Index: 89°F , 32°C
Dew Point: 68°F , 20°C
Humidity: 55%
Barometer: 30.00 inHg , 1015.9 hPa
Clouds: Mostly cloudy
Visibility: 10 miles , 16 km
Cloud details: Partly cloudy 3900 ft
Mostly cloudy 5500 ft
Mostly cloudy 25000 ft
2018/07/20 17:53 KCHA 201753Z 17009KT 10SM SCT039 BKN055 BKN250 30/20 A3000 RMK AO2 SLP151 T03000200 10300 20239 58008
 
KTYS - Knoxville, TN, USA
Distance from station: E 234mi, 377km
Updated: Fri, Jul-20-2018 12:53pm CDT
Partly cloudy
Partly cloudy
 Wind from SSW
Wind: SSW 10 mph , 17 km/h, Gust: 21 mph , 33 km/h
Temperature: 88°F , 31°C
Heat Index: 93°F , 34°C
Dew Point: 70°F , 21°C
Humidity: 55%
Barometer: 29.99 inHg , 1015.6 hPa
Clouds: Partly cloudy
Visibility: 10 miles , 16 km
Cloud details: Partly cloudy 4000 ft
Partly cloudy 25000 ft
2018/07/20 17:53 KTYS 201753Z 21009G18KT 10SM SCT040 SCT250 31/21 A2999 RMK AO2 SLP143 T03060206 10306 20222 56015
KLIT - Little Rock, AR, USA
Distance from station: W 240mi, 386km
Updated: Fri, Jul-20-2018 12:53pm CDT
Thunderstorm, Partly cloudy
Thunderstorm, Partly cloudy
 Wind from SSE
Wind: SSE 8 mph , 13 km/h
Temperature: 88°F , 31°C
Heat Index: 98°F , 37°C
Dew Point: 75°F , 24°C
Humidity: 66%
Barometer: 29.92 inHg , 1013.2 hPa
Summary: Thunderstorm
Clouds: Partly cloudy
Visibility: 10 miles , 16 km
Cloud details: Partly cloudy 5500 ft
Partly cloudy 25000 ft
2018/07/20 17:53 KLIT 201753Z 16007KT 10SM TS SCT055CB SCT250 31/24 A2992 RMK AO2 TSB32 SLP129 OCNL LTGICCG E TS E MOV SE 60003 T03110244 10317 20267 50013

Refresh Page for latest data.